createdAt,value
2018-11-14T00:01:12.295Z,73.60
2018-11-14T00:11:15.516Z,73.50
2018-11-14T00:21:18.810Z,73.50
2018-11-14T00:31:22.052Z,73.50
2018-11-14T00:41:25.288Z,73.70
2018-11-14T00:51:28.531Z,73.90
2018-11-14T01:01:31.791Z,73.90
2018-11-14T01:11:34.993Z,73.90
2018-11-14T01:21:38.285Z,73.70
2018-11-14T01:31:41.513Z,74.10
2018-11-14T01:41:44.933Z,74.10
2018-11-14T01:51:48.135Z,74.20
2018-11-14T02:01:51.498Z,74.30
2018-11-14T02:11:54.845Z,74.40
2018-11-14T02:21:58.122Z,74.10
2018-11-14T02:32:01.381Z,74.30
2018-11-14T02:42:05.601Z,74.20
2018-11-14T02:52:08.840Z,74.30
2018-11-14T03:02:12.060Z,73.70
2018-11-14T03:12:15.352Z,73.80
2018-11-14T03:22:18.600Z,73.60
2018-11-14T03:32:21.855Z,73.50
2018-11-14T03:42:25.507Z,73.50
2018-11-14T03:52:28.768Z,73.80
2018-11-14T04:02:32.033Z,73.50
2018-11-14T04:12:35.472Z,72.70
2018-11-14T04:22:38.749Z,73.00
2018-11-14T04:32:42.525Z,72.40
2018-11-14T04:42:45.767Z,72.60
2018-11-14T04:52:49.781Z,72.30
2018-11-14T05:02:53.053Z,72.40
2018-11-14T05:12:56.355Z,71.70
2018-11-14T05:23:06.045Z,72.50
2018-11-14T05:33:09.361Z,72.70
2018-11-14T05:43:12.636Z,73.80
2018-11-14T05:53:15.888Z,74.20
2018-11-14T06:03:19.113Z,74.70
2018-11-14T06:13:22.377Z,75.50
2018-11-14T06:23:25.676Z,75.60
2018-11-14T06:33:28.964Z,75.80
2018-11-14T06:43:32.228Z,75.60
2018-11-14T06:53:35.441Z,75.20
2018-11-14T07:03:38.672Z,75.30
2018-11-14T07:13:41.923Z,75.30
2018-11-14T07:23:45.249Z,75.60
2018-11-14T07:33:48.447Z,76.40
2018-11-14T07:43:51.701Z,77.10
2018-11-14T07:53:55.016Z,77.50
2018-11-14T08:03:58.332Z,77.90
2018-11-14T08:14:01.629Z,77.80
2018-11-14T08:24:04.938Z,77.50
2018-11-14T08:34:08.198Z,77.20
2018-11-14T08:44:11.535Z,77.30
2018-11-14T08:54:14.836Z,77.10
2018-11-14T09:04:18.090Z,76.40
2018-11-14T09:14:21.329Z,76.60
2018-11-14T09:24:24.611Z,76.80
2018-11-14T09:34:27.892Z,77.90
2018-11-14T09:44:31.161Z,77.50
2018-11-14T09:54:34.416Z,78.50
2018-11-14T10:04:37.691Z,79.30
2018-11-14T10:14:40.936Z,79.00
2018-11-14T10:24:44.300Z,78.90
2018-11-14T10:34:47.848Z,78.20
2018-11-14T10:44:51.184Z,78.50
2018-11-14T10:54:54.431Z,78.70
2018-11-14T11:06:05.437Z,78.30
2018-11-14T11:16:14.149Z,78.00
2018-11-14T11:26:17.881Z,78.20
2018-11-14T11:36:21.349Z,78.10
2018-11-14T11:46:24.676Z,79.00
2018-11-14T11:56:28.539Z,78.60
2018-11-14T12:06:32.877Z,78.20
2018-11-14T12:16:36.474Z,78.20
2018-11-14T12:26:39.911Z,78.20
2018-11-14T12:36:43.248Z,78.10
2018-11-14T12:46:46.575Z,78.30
2018-11-14T12:56:49.920Z,77.10
2018-11-14T13:06:53.297Z,76.80
2018-11-14T13:16:56.618Z,76.80
2018-11-14T13:27:00.287Z,76.70
2018-11-14T13:37:03.645Z,76.70
2018-11-14T13:47:07.934Z,76.70
2018-11-14T13:57:11.237Z,76.40
2018-11-14T14:07:14.842Z,76.40
2018-11-14T14:17:18.254Z,76.10
2018-11-14T14:27:21.576Z,75.70
2018-11-14T14:37:24.933Z,75.50
2018-11-14T14:47:28.252Z,75.10
2018-11-14T14:57:31.797Z,74.60
2018-11-14T15:07:35.375Z,74.60
2018-11-14T15:17:38.613Z,74.30
2018-11-14T15:27:42.449Z,74.40
2018-11-14T15:37:45.712Z,74.40
2018-11-14T15:47:48.951Z,74.10
2018-11-14T15:57:52.309Z,73.80
2018-11-14T16:07:56.622Z,73.70
2018-11-14T16:18:06.687Z,73.50
2018-11-14T16:28:09.860Z,73.50
2018-11-14T16:38:13.189Z,73.20
2018-11-14T16:48:16.396Z,73.10
2018-11-14T16:58:19.638Z,74.20
2018-11-14T17:08:22.864Z,74.10
2018-11-14T17:18:26.425Z,74.20
2018-11-14T17:28:29.755Z,74.00
2018-11-14T17:38:33.151Z,74.10
2018-11-14T17:48:36.437Z,74.10
2018-11-14T17:58:39.808Z,74.20
2018-11-14T18:08:43.174Z,74.20
2018-11-14T18:18:46.576Z,74.30
2018-11-14T18:28:50.120Z,74.40
2018-11-14T18:38:53.453Z,74.50
2018-11-14T18:48:56.829Z,74.50
2018-11-14T18:59:00.164Z,74.50
2018-11-14T19:09:04.588Z,74.60
2018-11-14T19:19:08.347Z,74.20
2018-11-14T19:29:11.738Z,74.10
2018-11-14T19:39:15.081Z,74.10
2018-11-14T19:49:18.373Z,74.00
2018-11-14T19:59:21.744Z,73.90
2018-11-14T20:09:25.069Z,73.90
2018-11-14T20:19:28.436Z,73.80
2018-11-14T20:29:31.775Z,73.70
2018-11-14T20:39:35.140Z,73.70
2018-11-14T20:49:39.088Z,73.50
2018-11-14T20:59:42.416Z,73.60
2018-11-14T21:09:45.813Z,73.40
2018-11-14T21:19:49.108Z,73.40
2018-11-14T21:29:52.473Z,73.00
2018-11-14T21:39:55.805Z,73.00
2018-11-14T21:49:59.201Z,72.80
2018-11-14T22:00:02.494Z,72.50
2018-11-14T22:10:08.110Z,72.20
2018-11-14T22:20:14.117Z,72.00
2018-11-14T22:30:23.168Z,71.60
2018-11-14T22:40:27.845Z,71.60
2018-11-14T22:50:31.217Z,71.50
2018-11-14T23:00:39.753Z,71.40
2018-11-14T23:10:43.120Z,71.30
2018-11-14T23:20:46.447Z,71.20
2018-11-14T23:30:49.776Z,71.00
2018-11-14T23:40:53.143Z,71.30
2018-11-14T23:50:56.484Z,71.10
